sensor_id;sensor_type;location;lat;lon;timestamp;temperature;humidity
64034;SHT31;50280;49.864;8.638;2023-02-17T00:01:48;10.10;69.54
64034;SHT31;50280;49.864;8.638;2023-02-17T00:04:20;10.10;69.61
64034;SHT31;50280;49.864;8.638;2023-02-17T00:06:52;10.14;69.54
64034;SHT31;50280;49.864;8.638;2023-02-17T00:09:25;10.16;69.41
64034;SHT31;50280;49.864;8.638;2023-02-17T00:11:57;10.16;69.55
64034;SHT31;50280;49.864;8.638;2023-02-17T00:14:30;10.14;69.46
64034;SHT31;50280;49.864;8.638;2023-02-17T00:17:02;10.14;69.46
64034;SHT31;50280;49.864;8.638;2023-02-17T00:19:34;10.14;69.72
64034;SHT31;50280;49.864;8.638;2023-02-17T00:22:06;10.14;69.64
64034;SHT31;50280;49.864;8.638;2023-02-17T00:24:40;10.12;69.57
64034;SHT31;50280;49.864;8.638;2023-02-17T00:27:12;10.09;69.56
64034;SHT31;50280;49.864;8.638;2023-02-17T00:29:44;10.09;69.55
64034;SHT31;50280;49.864;8.638;2023-02-17T00:32:16;10.10;69.67
64034;SHT31;50280;49.864;8.638;2023-02-17T00:34:50;10.09;69.67
64034;SHT31;50280;49.864;8.638;2023-02-17T00:37:22;10.07;69.48
64034;SHT31;50280;49.864;8.638;2023-02-17T00:39:56;10.06;69.47
64034;SHT31;50280;49.864;8.638;2023-02-17T00:42:28;10.06;69.54
64034;SHT31;50280;49.864;8.638;2023-02-17T00:45:00;10.07;69.73
64034;SHT31;50280;49.864;8.638;2023-02-17T00:47:32;10.06;69.73
64034;SHT31;50280;49.864;8.638;2023-02-17T00:50:05;10.02;69.61
64034;SHT31;50280;49.864;8.638;2023-02-17T00:52:38;10.04;69.79
64034;SHT31;50280;49.864;8.638;2023-02-17T00:55:12;10.04;69.85
64034;SHT31;50280;49.864;8.638;2023-02-17T00:57:44;10.03;69.79
64034;SHT31;50280;49.864;8.638;2023-02-17T01:00:16;10.07;70.00
64034;SHT31;50280;49.864;8.638;2023-02-17T01:02:49;10.06;70.03
64034;SHT31;50280;49.864;8.638;2023-02-17T01:05:22;10.06;70.15
64034;SHT31;50280;49.864;8.638;2023-02-17T01:07:54;10.06;70.22
64034;SHT31;50280;49.864;8.638;2023-02-17T01:10:28;10.04;70.39
64034;SHT31;50280;49.864;8.638;2023-02-17T01:13:00;10.04;70.51
64034;SHT31;50280;49.864;8.638;2023-02-17T01:15:35;10.03;70.63
64034;SHT31;50280;49.864;8.638;2023-02-17T01:18:08;10.02;70.85
64034;SHT31;50280;49.864;8.638;2023-02-17T01:20:41;9.97;71.04
64034;SHT31;50280;49.864;8.638;2023-02-17T01:23:14;9.93;71.21
64034;SHT31;50280;49.864;8.638;2023-02-17T01:25:47;9.93;71.33
64034;SHT31;50280;49.864;8.638;2023-02-17T01:28:20;9.95;71.23
64034;SHT31;50280;49.864;8.638;2023-02-17T01:30:52;9.92;71.32
64034;SHT31;50280;49.864;8.638;2023-02-17T01:33:24;9.90;71.39
64034;SHT31;50280;49.864;8.638;2023-02-17T01:36:00;9.89;71.66
64034;SHT31;50280;49.864;8.638;2023-02-17T01:38:32;9.85;71.86
64034;SHT31;50280;49.864;8.638;2023-02-17T01:41:07;9.82;72.17
64034;SHT31;50280;49.864;8.638;2023-02-17T01:43:42;9.81;72.44
64034;SHT31;50280;49.864;8.638;2023-02-17T01:46:34;9.78;72.68
64034;SHT31;50280;49.864;8.638;2023-02-17T01:49:11;9.78;72.85
64034;SHT31;50280;49.864;8.638;2023-02-17T01:52:02;9.78;73.19
64034;SHT31;50280;49.864;8.638;2023-02-17T01:54:43;9.76;73.45
64034;SHT31;50280;49.864;8.638;2023-02-17T01:57:23;9.76;73.60
64034;SHT31;50280;49.864;8.638;2023-02-17T02:00:00;9.79;73.74
64034;SHT31;50280;49.864;8.638;2023-02-17T02:02:33;9.79;73.87
64034;SHT31;50280;49.864;8.638;2023-02-17T02:05:05;9.83;73.96
64034;SHT31;50280;49.864;8.638;2023-02-17T02:07:39;9.89;73.97
64034;SHT31;50280;49.864;8.638;2023-02-17T02:10:15;9.89;73.95
64034;SHT31;50280;49.864;8.638;2023-02-17T02:12:51;9.92;74.02
64034;SHT31;50280;49.864;8.638;2023-02-17T02:15:24;9.95;74.06
64034;SHT31;50280;49.864;8.638;2023-02-17T02:18:07;9.92;74.20
64034;SHT31;50280;49.864;8.638;2023-02-17T02:24:42;9.89;74.53
64034;SHT31;50280;49.864;8.638;2023-02-17T02:27:44;9.92;74.56
64034;SHT31;50280;49.864;8.638;2023-02-17T02:30:47;9.93;74.54
64034;SHT31;50280;49.864;8.638;2023-02-17T02:33:37;9.97;74.58
64034;SHT31;50280;49.864;8.638;2023-02-17T02:36:17;9.95;74.74
64034;SHT31;50280;49.864;8.638;2023-02-17T02:38:58;9.95;74.92
64034;SHT31;50280;49.864;8.638;2023-02-17T02:41:38;9.92;75.10
64034;SHT31;50280;49.864;8.638;2023-02-17T02:44:17;9.93;75.39
64034;SHT31;50280;49.864;8.638;2023-02-17T02:46:57;9.96;75.49
64034;SHT31;50280;49.864;8.638;2023-02-17T02:49:33;10.02;75.55
64034;SHT31;50280;49.864;8.638;2023-02-17T02:52:08;10.02;75.64
64034;SHT31;50280;49.864;8.638;2023-02-17T02:54:55;10.07;75.57
64034;SHT31;50280;49.864;8.638;2023-02-17T02:57:41;10.09;75.51
64034;SHT31;50280;49.864;8.638;2023-02-17T03:00:28;10.12;75.48
64034;SHT31;50280;49.864;8.638;2023-02-17T03:03:12;10.14;75.38
64034;SHT31;50280;49.864;8.638;2023-02-17T03:05:56;10.20;75.25
64034;SHT31;50280;49.864;8.638;2023-02-17T03:08:38;10.20;75.08
64034;SHT31;50280;49.864;8.638;2023-02-17T03:11:20;10.23;75.05
64034;SHT31;50280;49.864;8.638;2023-02-17T03:13:54;10.23;74.81
64034;SHT31;50280;49.864;8.638;2023-02-17T03:16:32;10.23;74.64
64034;SHT31;50280;49.864;8.638;2023-02-17T03:19:06;10.24;74.63
64034;SHT31;50280;49.864;8.638;2023-02-17T03:21:42;10.27;74.50
64034;SHT31;50280;49.864;8.638;2023-02-17T03:24:21;10.24;74.57
64034;SHT31;50280;49.864;8.638;2023-02-17T03:26:53;10.27;74.68
64034;SHT31;50280;49.864;8.638;2023-02-17T03:29:25;10.23;74.71
64034;SHT31;50280;49.864;8.638;2023-02-17T03:31:57;10.24;74.82
64034;SHT31;50280;49.864;8.638;2023-02-17T03:34:30;10.24;74.93
64034;SHT31;50280;49.864;8.638;2023-02-17T03:37:04;10.23;75.01
64034;SHT31;50280;49.864;8.638;2023-02-17T03:39:36;10.29;74.98
64034;SHT31;50280;49.864;8.638;2023-02-17T03:42:08;10.31;75.12
64034;SHT31;50280;49.864;8.638;2023-02-17T03:44:40;10.31;75.21
64034;SHT31;50280;49.864;8.638;2023-02-17T03:47:12;10.33;75.32
64034;SHT31;50280;49.864;8.638;2023-02-17T03:49:44;10.34;75.31
64034;SHT31;50280;49.864;8.638;2023-02-17T03:52:18;10.31;75.34
64034;SHT31;50280;49.864;8.638;2023-02-17T03:54:50;10.33;75.46
64034;SHT31;50280;49.864;8.638;2023-02-17T03:57:22;10.34;75.59
64034;SHT31;50280;49.864;8.638;2023-02-17T03:59:54;10.36;75.78
64034;SHT31;50280;49.864;8.638;2023-02-17T04:02:26;10.33;76.03
64034;SHT31;50280;49.864;8.638;2023-02-17T04:04:58;10.36;76.23
64034;SHT31;50280;49.864;8.638;2023-02-17T04:07:31;10.36;76.40
64034;SHT31;50280;49.864;8.638;2023-02-17T04:10:04;10.36;76.50
64034;SHT31;50280;49.864;8.638;2023-02-17T04:12:38;10.31;76.81
64034;SHT31;50280;49.864;8.638;2023-02-17T04:15:10;10.33;77.07
64034;SHT31;50280;49.864;8.638;2023-02-17T04:17:42;10.31;77.25
64034;SHT31;50280;49.864;8.638;2023-02-17T04:20:14;10.31;77.38
64034;SHT31;50280;49.864;8.638;2023-02-17T04:22:48;10.31;77.57
64034;SHT31;50280;49.864;8.638;2023-02-17T04:25:20;10.31;77.68
64034;SHT31;50280;49.864;8.638;2023-02-17T04:27:52;10.30;77.97
64034;SHT31;50280;49.864;8.638;2023-02-17T04:30:24;10.27;78.06
64034;SHT31;50280;49.864;8.638;2023-02-17T04:32:56;10.27;78.15
64034;SHT31;50280;49.864;8.638;2023-02-17T04:35:30;10.27;78.25
64034;SHT31;50280;49.864;8.638;2023-02-17T04:38:04;10.29;78.34
64034;SHT31;50280;49.864;8.638;2023-02-17T04:40:39;10.29;78.36
64034;SHT31;50280;49.864;8.638;2023-02-17T04:43:11;10.30;78.41
64034;SHT31;50280;49.864;8.638;2023-02-17T04:45:43;10.30;78.43
64034;SHT31;50280;49.864;8.638;2023-02-17T04:48:15;10.31;78.51
64034;SHT31;50280;49.864;8.638;2023-02-17T04:50:47;10.27;78.68
64034;SHT31;50280;49.864;8.638;2023-02-17T04:53:21;10.31;78.66
64034;SHT31;50280;49.864;8.638;2023-02-17T04:55:53;10.29;78.80
64034;SHT31;50280;49.864;8.638;2023-02-17T04:58:25;10.29;78.89
64034;SHT31;50280;49.864;8.638;2023-02-17T05:00:58;10.30;78.94
64034;SHT31;50280;49.864;8.638;2023-02-17T05:03:31;10.27;79.00
64034;SHT31;50280;49.864;8.638;2023-02-17T05:06:03;10.29;79.07
64034;SHT31;50280;49.864;8.638;2023-02-17T05:08:37;10.29;79.05
64034;SHT31;50280;49.864;8.638;2023-02-17T05:11:09;10.30;78.95
64034;SHT31;50280;49.864;8.638;2023-02-17T05:13:41;10.29;78.93
64034;SHT31;50280;49.864;8.638;2023-02-17T05:16:13;10.27;79.06
64034;SHT31;50280;49.864;8.638;2023-02-17T05:18:45;10.25;79.34
64034;SHT31;50280;49.864;8.638;2023-02-17T05:21:17;10.27;79.45
64034;SHT31;50280;49.864;8.638;2023-02-17T05:23:51;10.33;79.55
64034;SHT31;50280;49.864;8.638;2023-02-17T05:26:23;10.31;79.59
64034;SHT31;50280;49.864;8.638;2023-02-17T05:28:55;10.30;79.71
64034;SHT31;50280;49.864;8.638;2023-02-17T05:31:27;10.33;79.89
64034;SHT31;50280;49.864;8.638;2023-02-17T05:33:59;10.30;80.03
64034;SHT31;50280;49.864;8.638;2023-02-17T05:36:32;10.31;80.20
64034;SHT31;50280;49.864;8.638;2023-02-17T05:39:05;10.29;80.16
64034;SHT31;50280;49.864;8.638;2023-02-17T05:41:37;10.33;80.20
64034;SHT31;50280;49.864;8.638;2023-02-17T05:44:09;10.33;80.21
64034;SHT31;50280;49.864;8.638;2023-02-17T05:46:41;10.33;80.23
64034;SHT31;50280;49.864;8.638;2023-02-17T05:49:13;10.31;80.27
64034;SHT31;50280;49.864;8.638;2023-02-17T05:51:46;10.34;80.35
64034;SHT31;50280;49.864;8.638;2023-02-17T05:54:19;10.36;80.31
64034;SHT31;50280;49.864;8.638;2023-02-17T05:56:52;10.40;80.23
64034;SHT31;50280;49.864;8.638;2023-02-17T05:59:24;10.40;80.18
64034;SHT31;50280;49.864;8.638;2023-02-17T06:01:56;10.40;80.23
64034;SHT31;50280;49.864;8.638;2023-02-17T06:04:28;10.41;80.28
64034;SHT31;50280;49.864;8.638;2023-02-17T06:07:00;10.44;80.34
64034;SHT31;50280;49.864;8.638;2023-02-17T06:09:34;10.44;80.30
64034;SHT31;50280;49.864;8.638;2023-02-17T06:12:06;10.47;80.52
64034;SHT31;50280;49.864;8.638;2023-02-17T06:14:38;10.52;80.20
64034;SHT31;50280;49.864;8.638;2023-02-17T06:17:10;10.55;80.13
64034;SHT31;50280;49.864;8.638;2023-02-17T06:19:42;10.61;79.96
64034;SHT31;50280;49.864;8.638;2023-02-17T06:22:14;10.64;79.85
64034;SHT31;50280;49.864;8.638;2023-02-17T06:24:48;10.59;79.95
64034;SHT31;50280;49.864;8.638;2023-02-17T06:27:20;10.58;80.16
64034;SHT31;50280;49.864;8.638;2023-02-17T06:29:52;10.54;80.53
64034;SHT31;50280;49.864;8.638;2023-02-17T06:32:24;10.51;80.90
64034;SHT31;50280;49.864;8.638;2023-02-17T06:34:56;10.44;81.11
64034;SHT31;50280;49.864;8.638;2023-02-17T06:37:28;10.41;81.55
64034;SHT31;50280;49.864;8.638;2023-02-17T06:40:02;10.37;82.23
64034;SHT31;50280;49.864;8.638;2023-02-17T06:42:34;10.33;82.51
64034;SHT31;50280;49.864;8.638;2023-02-17T06:45:07;10.29;82.73
64034;SHT31;50280;49.864;8.638;2023-02-17T06:47:40;10.23;82.91
64034;SHT31;50280;49.864;8.638;2023-02-17T06:50:12;10.20;82.87
64034;SHT31;50280;49.864;8.638;2023-02-17T06:52:44;10.18;82.96
64034;SHT31;50280;49.864;8.638;2023-02-17T06:55:18;10.20;83.16
64034;SHT31;50280;49.864;8.638;2023-02-17T06:57:50;10.18;83.29
64034;SHT31;50280;49.864;8.638;2023-02-17T07:00:22;10.18;83.19
64034;SHT31;50280;49.864;8.638;2023-02-17T07:02:54;10.16;83.01
64034;SHT31;50280;49.864;8.638;2023-02-17T07:05:26;10.16;82.88
64034;SHT31;50280;49.864;8.638;2023-02-17T07:07:58;10.18;82.67
64034;SHT31;50280;49.864;8.638;2023-02-17T07:10:32;10.21;82.64
64034;SHT31;50280;49.864;8.638;2023-02-17T07:13:04;10.20;82.54
64034;SHT31;50280;49.864;8.638;2023-02-17T07:15:36;10.23;82.47
64034;SHT31;50280;49.864;8.638;2023-02-17T07:18:08;10.24;82.52
64034;SHT31;50280;49.864;8.638;2023-02-17T07:20:40;10.25;82.50
64034;SHT31;50280;49.864;8.638;2023-02-17T07:23:12;10.29;82.45
64034;SHT31;50280;49.864;8.638;2023-02-17T07:25:46;10.25;82.45
64034;SHT31;50280;49.864;8.638;2023-02-17T07:28:18;10.29;82.53
64034;SHT31;50280;49.864;8.638;2023-02-17T07:30:50;10.30;82.56
64034;SHT31;50280;49.864;8.638;2023-02-17T07:33:22;10.30;82.53
64034;SHT31;50280;49.864;8.638;2023-02-17T07:35:54;10.29;82.53
64034;SHT31;50280;49.864;8.638;2023-02-17T07:38:26;10.30;82.53
64034;SHT31;50280;49.864;8.638;2023-02-17T07:41:03;10.30;82.58
64034;SHT31;50280;49.864;8.638;2023-02-17T07:43:37;10.31;82.59
64034;SHT31;50280;49.864;8.638;2023-02-17T07:46:10;10.31;82.61
64034;SHT31;50280;49.864;8.638;2023-02-17T07:48:43;10.33;82.60
64034;SHT31;50280;49.864;8.638;2023-02-17T07:51:16;10.36;82.59
64034;SHT31;50280;49.864;8.638;2023-02-17T07:53:51;10.34;82.53
64034;SHT31;50280;49.864;8.638;2023-02-17T07:56:25;10.33;82.46
64034;SHT31;50280;49.864;8.638;2023-02-17T07:58:57;10.31;82.44
64034;SHT31;50280;49.864;8.638;2023-02-17T08:01:29;10.27;82.35
64034;SHT31;50280;49.864;8.638;2023-02-17T08:04:01;10.23;82.36
64034;SHT31;50280;49.864;8.638;2023-02-17T08:06:34;10.23;82.34
64034;SHT31;50280;49.864;8.638;2023-02-17T08:09:08;10.21;82.14
64034;SHT31;50280;49.864;8.638;2023-02-17T08:11:43;10.17;82.03
64034;SHT31;50280;49.864;8.638;2023-02-17T08:14:15;10.13;82.21
64034;SHT31;50280;49.864;8.638;2023-02-17T08:16:48;10.13;82.29
64034;SHT31;50280;49.864;8.638;2023-02-17T08:19:20;10.10;82.44
64034;SHT31;50280;49.864;8.638;2023-02-17T08:21:53;10.09;82.56
64034;SHT31;50280;49.864;8.638;2023-02-17T08:24:25;10.07;82.70
64034;SHT31;50280;49.864;8.638;2023-02-17T08:26:59;10.10;82.78
64034;SHT31;50280;49.864;8.638;2023-02-17T08:29:31;10.13;82.95
64034;SHT31;50280;49.864;8.638;2023-02-17T08:32:03;10.20;83.16
64034;SHT31;50280;49.864;8.638;2023-02-17T08:34:35;10.30;83.01
64034;SHT31;50280;49.864;8.638;2023-02-17T08:37:07;10.41;82.79
64034;SHT31;50280;49.864;8.638;2023-02-17T08:39:40;10.49;82.50
64034;SHT31;50280;49.864;8.638;2023-02-17T08:42:14;10.57;82.29
64034;SHT31;50280;49.864;8.638;2023-02-17T08:44:46;10.59;82.01
64034;SHT31;50280;49.864;8.638;2023-02-17T08:47:18;10.62;81.98
64034;SHT31;50280;49.864;8.638;2023-02-17T08:49:50;10.62;81.86
64034;SHT31;50280;49.864;8.638;2023-02-17T08:52:22;10.65;81.80
64034;SHT31;50280;49.864;8.638;2023-02-17T08:54:54;10.68;81.94
64034;SHT31;50280;49.864;8.638;2023-02-17T08:57:28;10.73;81.97
64034;SHT31;50280;49.864;8.638;2023-02-17T09:00:00;10.72;82.18
64034;SHT31;50280;49.864;8.638;2023-02-17T09:02:34;10.75;82.32
64034;SHT31;50280;49.864;8.638;2023-02-17T09:05:06;10.79;82.69
64034;SHT31;50280;49.864;8.638;2023-02-17T09:07:38;10.78;82.76
64034;SHT31;50280;49.864;8.638;2023-02-17T09:10:11;10.78;83.11
64034;SHT31;50280;49.864;8.638;2023-02-17T09:12:45;10.76;83.14
64034;SHT31;50280;49.864;8.638;2023-02-17T09:15:17;10.71;83.27
64034;SHT31;50280;49.864;8.638;2023-02-17T09:17:49;10.71;83.53
64034;SHT31;50280;49.864;8.638;2023-02-17T09:20:21;10.66;83.81
64034;SHT31;50280;49.864;8.638;2023-02-17T09:22:53;10.59;83.83
64034;SHT31;50280;49.864;8.638;2023-02-17T09:25:25;10.48;84.22
64034;SHT31;50280;49.864;8.638;2023-02-17T09:27:59;10.37;84.75
64034;SHT31;50280;49.864;8.638;2023-02-17T09:30:31;10.31;85.11
64034;SHT31;50280;49.864;8.638;2023-02-17T09:33:03;10.20;85.69
64034;SHT31;50280;49.864;8.638;2023-02-17T09:35:35;10.07;86.42
64034;SHT31;50280;49.864;8.638;2023-02-17T09:38:09;10.00;87.13
64034;SHT31;50280;49.864;8.638;2023-02-17T09:40:41;9.93;87.70
64034;SHT31;50280;49.864;8.638;2023-02-17T09:43:20;9.86;88.42
64034;SHT31;50280;49.864;8.638;2023-02-17T09:46:00;9.78;88.89
64034;SHT31;50280;49.864;8.638;2023-02-17T09:48:41;9.72;89.18
64034;SHT31;50280;49.864;8.638;2023-02-17T09:51:19;9.62;89.60
64034;SHT31;50280;49.864;8.638;2023-02-17T09:54:01;9.61;89.85
64034;SHT31;50280;49.864;8.638;2023-02-17T09:56:41;9.61;89.98
64034;SHT31;50280;49.864;8.638;2023-02-17T09:59:19;9.55;90.24
64034;SHT31;50280;49.864;8.638;2023-02-17T10:01:58;9.55;90.21
64034;SHT31;50280;49.864;8.638;2023-02-17T10:04:36;9.57;90.40
64034;SHT31;50280;49.864;8.638;2023-02-17T10:07:17;9.57;90.46
64034;SHT31;50280;49.864;8.638;2023-02-17T10:09:56;9.61;90.49
64034;SHT31;50280;49.864;8.638;2023-02-17T10:12:38;9.61;90.42
64034;SHT31;50280;49.864;8.638;2023-02-17T10:15:19;9.59;90.48
64034;SHT31;50280;49.864;8.638;2023-02-17T10:17:56;9.61;90.41
64034;SHT31;50280;49.864;8.638;2023-02-17T10:20:38;9.62;90.42
64034;SHT31;50280;49.864;8.638;2023-02-17T10:23:14;9.65;90.29
64034;SHT31;50280;49.864;8.638;2023-02-17T10:26:01;9.71;90.21
64034;SHT31;50280;49.864;8.638;2023-02-17T10:28:50;9.74;90.23
64034;SHT31;50280;49.864;8.638;2023-02-17T10:31:30;9.78;90.11
64034;SHT31;50280;49.864;8.638;2023-02-17T10:34:17;9.76;89.74
64034;SHT31;50280;49.864;8.638;2023-02-17T10:37:09;9.82;89.81
64034;SHT31;50280;49.864;8.638;2023-02-17T10:39:49;9.86;89.63
64034;SHT31;50280;49.864;8.638;2023-02-17T10:42:24;9.90;89.42
64034;SHT31;50280;49.864;8.638;2023-02-17T10:45:01;9.97;89.14
64034;SHT31;50280;49.864;8.638;2023-02-17T10:47:37;10.00;88.97
64034;SHT31;50280;49.864;8.638;2023-02-17T10:50:14;10.04;88.90
64034;SHT31;50280;49.864;8.638;2023-02-17T10:52:52;10.10;88.88
64034;SHT31;50280;49.864;8.638;2023-02-17T10:55:30;10.10;88.64
64034;SHT31;50280;49.864;8.638;2023-02-17T10:58:10;10.16;88.56
64034;SHT31;50280;49.864;8.638;2023-02-17T11:00:51;10.20;88.58
64034;SHT31;50280;49.864;8.638;2023-02-17T11:03:28;10.25;88.51
64034;SHT31;50280;49.864;8.638;2023-02-17T11:06:02;10.25;88.38
64034;SHT31;50280;49.864;8.638;2023-02-17T11:08:38;10.31;88.25
64034;SHT31;50280;49.864;8.638;2023-02-17T11:11:17;10.36;88.04
64034;SHT31;50280;49.864;8.638;2023-02-17T11:16:50;10.49;87.67
64034;SHT31;50280;49.864;8.638;2023-02-17T11:19:29;10.54;87.64
64034;SHT31;50280;49.864;8.638;2023-02-17T11:22:17;10.59;87.41
64034;SHT31;50280;49.864;8.638;2023-02-17T11:25:03;10.66;87.07
64034;SHT31;50280;49.864;8.638;2023-02-17T11:27:38;10.72;86.90
64034;SHT31;50280;49.864;8.638;2023-02-17T11:30:13;10.79;86.70
64034;SHT31;50280;49.864;8.638;2023-02-17T11:32:47;10.89;86.35
64034;SHT31;50280;49.864;8.638;2023-02-17T11:35:22;10.97;86.07
64034;SHT31;50280;49.864;8.638;2023-02-17T11:38:02;11.03;85.84
64034;SHT31;50280;49.864;8.638;2023-02-17T11:40:50;11.07;85.45
64034;SHT31;50280;49.864;8.638;2023-02-17T11:43:25;11.16;85.38
64034;SHT31;50280;49.864;8.638;2023-02-17T11:46:05;11.17;85.30
64034;SHT31;50280;49.864;8.638;2023-02-17T11:48:57;11.23;85.01
64034;SHT31;50280;49.864;8.638;2023-02-17T11:52:13;11.28;84.81
64034;SHT31;50280;49.864;8.638;2023-02-17T11:55:03;11.38;84.70
64034;SHT31;50280;49.864;8.638;2023-02-17T11:57:57;11.41;84.19
64034;SHT31;50280;49.864;8.638;2023-02-17T12:00:52;11.45;84.08
64034;SHT31;50280;49.864;8.638;2023-02-17T12:03:42;11.52;83.81
64034;SHT31;50280;49.864;8.638;2023-02-17T12:06:59;11.55;83.75
64034;SHT31;50280;49.864;8.638;2023-02-17T12:09:54;11.57;83.64
64034;SHT31;50280;49.864;8.638;2023-02-17T12:12:38;11.58;83.41
64034;SHT31;50280;49.864;8.638;2023-02-17T12:15:41;11.61;83.40
64034;SHT31;50280;49.864;8.638;2023-02-17T12:18:32;11.65;83.32
64034;SHT31;50280;49.864;8.638;2023-02-17T12:21:23;11.65;83.21
64034;SHT31;50280;49.864;8.638;2023-02-17T12:24:19;11.71;82.84
64034;SHT31;50280;49.864;8.638;2023-02-17T12:27:14;11.75;82.75
64034;SHT31;50280;49.864;8.638;2023-02-17T12:30:16;11.79;82.54
64034;SHT31;50280;49.864;8.638;2023-02-17T12:33:13;11.83;82.59
64034;SHT31;50280;49.864;8.638;2023-02-17T12:36:06;11.83;82.34
64034;SHT31;50280;49.864;8.638;2023-02-17T12:38:44;11.85;82.18
64034;SHT31;50280;49.864;8.638;2023-02-17T12:41:26;11.89;82.32
64034;SHT31;50280;49.864;8.638;2023-02-17T12:44:09;11.90;82.07
64034;SHT31;50280;49.864;8.638;2023-02-17T12:46:49;11.96;82.15
64034;SHT31;50280;49.864;8.638;2023-02-17T12:49:29;11.97;82.15
64034;SHT31;50280;49.864;8.638;2023-02-17T12:52:09;11.99;82.08
64034;SHT31;50280;49.864;8.638;2023-02-17T12:54:51;12.04;82.05
64034;SHT31;50280;49.864;8.638;2023-02-17T12:57:33;12.06;81.82
64034;SHT31;50280;49.864;8.638;2023-02-17T13:00:17;12.10;81.77
64034;SHT31;50280;49.864;8.638;2023-02-17T13:02:56;12.13;81.68
64034;SHT31;50280;49.864;8.638;2023-02-17T13:05:29;12.17;81.43
64034;SHT31;50280;49.864;8.638;2023-02-17T13:08:08;12.20;81.35
64034;SHT31;50280;49.864;8.638;2023-02-17T13:10:58;12.24;81.21
64034;SHT31;50280;49.864;8.638;2023-02-17T13:13:34;12.27;81.00
64034;SHT31;50280;49.864;8.638;2023-02-17T13:16:07;12.28;80.94
64034;SHT31;50280;49.864;8.638;2023-02-17T13:18:42;12.33;80.75
64034;SHT31;50280;49.864;8.638;2023-02-17T13:21:24;12.33;80.86
64034;SHT31;50280;49.864;8.638;2023-02-17T13:24:04;12.31;80.69
64034;SHT31;50280;49.864;8.638;2023-02-17T13:26:44;12.27;81.06
64034;SHT31;50280;49.864;8.638;2023-02-17T13:29:20;12.24;80.67
64034;SHT31;50280;49.864;8.638;2023-02-17T13:32:06;12.20;81.05
64034;SHT31;50280;49.864;8.638;2023-02-17T13:34:43;12.20;81.15
64034;SHT31;50280;49.864;8.638;2023-02-17T13:37:18;12.17;81.27
64034;SHT31;50280;49.864;8.638;2023-02-17T13:39:56;12.14;81.33
64034;SHT31;50280;49.864;8.638;2023-02-17T13:42:32;12.14;81.24
64034;SHT31;50280;49.864;8.638;2023-02-17T13:45:13;12.09;81.44
64034;SHT31;50280;49.864;8.638;2023-02-17T13:47:55;12.09;81.51
64034;SHT31;50280;49.864;8.638;2023-02-17T13:50:31;12.06;81.46
64034;SHT31;50280;49.864;8.638;2023-02-17T13:53:18;12.09;81.60
64034;SHT31;50280;49.864;8.638;2023-02-17T13:56:00;12.07;81.67
64034;SHT31;50280;49.864;8.638;2023-02-17T13:58:35;12.06;81.85
64034;SHT31;50280;49.864;8.638;2023-02-17T14:01:14;12.03;81.90
64034;SHT31;50280;49.864;8.638;2023-02-17T14:03:49;12.03;82.05
64034;SHT31;50280;49.864;8.638;2023-02-17T14:06:23;12.00;82.08
64034;SHT31;50280;49.864;8.638;2023-02-17T14:09:09;12.02;82.26
64034;SHT31;50280;49.864;8.638;2023-02-17T14:11:43;11.99;82.20
64034;SHT31;50280;49.864;8.638;2023-02-17T14:14:15;12.02;82.26
64034;SHT31;50280;49.864;8.638;2023-02-17T14:16:56;12.04;82.24
64034;SHT31;50280;49.864;8.638;2023-02-17T14:19:40;12.06;82.25
64034;SHT31;50280;49.864;8.638;2023-02-17T14:22:22;12.09;82.22
64034;SHT31;50280;49.864;8.638;2023-02-17T14:25:05;12.13;82.13
64034;SHT31;50280;49.864;8.638;2023-02-17T14:27:43;12.20;82.07
64034;SHT31;50280;49.864;8.638;2023-02-17T14:30:26;12.20;81.83
64034;SHT31;50280;49.864;8.638;2023-02-17T14:33:04;12.24;81.74
64034;SHT31;50280;49.864;8.638;2023-02-17T14:35:38;12.27;81.71
64034;SHT31;50280;49.864;8.638;2023-02-17T14:38:22;12.27;81.67
64034;SHT31;50280;49.864;8.638;2023-02-17T14:40:58;12.28;81.79
64034;SHT31;50280;49.864;8.638;2023-02-17T14:43:30;12.27;81.85
64034;SHT31;50280;49.864;8.638;2023-02-17T14:46:03;12.21;81.95
64034;SHT31;50280;49.864;8.638;2023-02-17T14:48:36;12.23;82.02
64034;SHT31;50280;49.864;8.638;2023-02-17T14:51:09;12.21;82.06
64034;SHT31;50280;49.864;8.638;2023-02-17T14:53:44;12.20;82.21
64034;SHT31;50280;49.864;8.638;2023-02-17T14:56:18;12.20;82.28
64034;SHT31;50280;49.864;8.638;2023-02-17T14:58:56;12.16;82.35
64034;SHT31;50280;49.864;8.638;2023-02-17T15:01:28;12.14;82.47
64034;SHT31;50280;49.864;8.638;2023-02-17T15:04:02;12.12;82.60
64034;SHT31;50280;49.864;8.638;2023-02-17T15:06:35;12.10;82.66
64034;SHT31;50280;49.864;8.638;2023-02-17T15:09:12;12.12;82.73
64034;SHT31;50280;49.864;8.638;2023-02-17T15:11:46;12.13;82.74
64034;SHT31;50280;49.864;8.638;2023-02-17T15:14:19;12.13;82.88
64034;SHT31;50280;49.864;8.638;2023-02-17T15:16:53;12.12;82.83
64034;SHT31;50280;49.864;8.638;2023-02-17T15:19:26;12.13;82.85
64034;SHT31;50280;49.864;8.638;2023-02-17T15:21:58;12.12;82.82
64034;SHT31;50280;49.864;8.638;2023-02-17T15:24:31;12.13;82.85
64034;SHT31;50280;49.864;8.638;2023-02-17T15:27:05;12.13;82.82
64034;SHT31;50280;49.864;8.638;2023-02-17T15:29:37;12.14;82.84
64034;SHT31;50280;49.864;8.638;2023-02-17T15:32:11;12.14;82.80
64034;SHT31;50280;49.864;8.638;2023-02-17T15:34:48;12.16;82.76
64034;SHT31;50280;49.864;8.638;2023-02-17T15:37:21;12.19;82.80
64034;SHT31;50280;49.864;8.638;2023-02-17T15:39:53;12.17;82.76
64034;SHT31;50280;49.864;8.638;2023-02-17T15:42:25;12.17;82.87
64034;SHT31;50280;49.864;8.638;2023-02-17T15:44:57;12.17;82.90
64034;SHT31;50280;49.864;8.638;2023-02-17T15:47:29;12.17;82.96
64034;SHT31;50280;49.864;8.638;2023-02-17T15:50:03;12.16;83.03
64034;SHT31;50280;49.864;8.638;2023-02-17T15:52:43;12.14;82.99
64034;SHT31;50280;49.864;8.638;2023-02-17T15:55:16;12.17;83.03
64034;SHT31;50280;49.864;8.638;2023-02-17T15:57:50;12.17;83.10
64034;SHT31;50280;49.864;8.638;2023-02-17T16:00:30;12.19;83.12
64034;SHT31;50280;49.864;8.638;2023-02-17T16:03:05;12.17;83.07
64034;SHT31;50280;49.864;8.638;2023-02-17T16:05:38;12.19;83.06
64034;SHT31;50280;49.864;8.638;2023-02-17T16:08:12;12.19;83.07
64034;SHT31;50280;49.864;8.638;2023-02-17T16:10:44;12.20;83.04
64034;SHT31;50280;49.864;8.638;2023-02-17T16:13:16;12.17;83.10
64034;SHT31;50280;49.864;8.638;2023-02-17T16:15:49;12.19;83.14
64034;SHT31;50280;49.864;8.638;2023-02-17T16:18:22;12.14;83.21
64034;SHT31;50280;49.864;8.638;2023-02-17T16:20:56;12.14;83.23
64034;SHT31;50280;49.864;8.638;2023-02-17T16:23:28;12.13;83.33
64034;SHT31;50280;49.864;8.638;2023-02-17T16:26:00;12.14;83.41
64034;SHT31;50280;49.864;8.638;2023-02-17T16:28:33;12.10;83.43
64034;SHT31;50280;49.864;8.638;2023-02-17T16:31:07;12.13;83.43
64034;SHT31;50280;49.864;8.638;2023-02-17T16:33:41;12.10;83.47
64034;SHT31;50280;49.864;8.638;2023-02-17T16:36:14;12.12;83.52